Wetterdaten: Woche 19.01.04 - 25.01.04 (KW4)
Datum Zeit Temperatur Luftfeuchte Luftdruck Regenmenge Wind Richtung Taupunkt Windchill
19.01.2004 00:00 -0.9 C 70 % 1023.3 hPa 0.0 l/m 0.2 km/h (0 Bft) N-NO -5.6 C -0.9 C
19.01.2004 01:00 -1.2 C 72 % 1023.3 hPa 0.0 l/m 0.9 km/h (0 Bft) NW -5.6 C -1.4 C
19.01.2004 02:00 -1.5 C 72 % 1024.0 hPa 0.0 l/m 0.1 km/h (0 Bft) N -6.0 C -1.5 C
19.01.2004 03:00 -1.7 C 72 % 1024.3 hPa 0.0 l/m 0.1 km/h (0 Bft) N -6.1 C -1.7 C
19.01.2004 04:00 -2.9 C 75 % 1024.3 hPa 0.0 l/m 0.0 km/h (0 Bft) N -6.7 C -2.9 C
19.01.2004 05:00 -3.2 C 81 % 1023.6 hPa 0.0 l/m 0.5 km/h (0 Bft) N -6.0 C -3.2 C
19.01.2004 06:00 -3.7 C 82 % 1023.5 hPa 0.0 l/m 0.0 km/h (0 Bft) N -6.3 C -3.7 C
19.01.2004 07:00 -3.4 C 84 % 1023.3 hPa 0.0 l/m 0.0 km/h (0 Bft) N -5.6 C -3.4 C
19.01.2004 08:00 -2.9 C 86 % 1023.3 hPa 0.0 l/m 0.1 km/h (0 Bft) N -4.8 C -2.9 C
19.01.2004 09:00 -2.0 C 85 % 1023.3 hPa 0.0 l/m 0.1 km/h (0 Bft) NW -4.1 C -2.0 C
19.01.2004 10:00 -0.7 C 78 % 1023.3 hPa 0.0 l/m 0.0 km/h (0 Bft) N -4.0 C -0.7 C
19.01.2004 11:00 0.1 C 71 % 1023.3 hPa 0.0 l/m 0.0 km/h (0 Bft) N -4.5 C 0.1 C
19.01.2004 12:00 0.5 C 66 % 1022.3 hPa 0.0 l/m 8.1 km/h (2 Bft) NW -5.0 C -1.9 C
19.01.2004 13:00 1.0 C 63 % 1021.3 hPa 0.0 l/m 11.4 km/h (2 Bft) NW -5.3 C -2.3 C
19.01.2004 14:00 1.1 C 61 % 1020.5 hPa 0.0 l/m 12.0 km/h (2 Bft) NW -5.6 C -2.5 C
19.01.2004 15:00 0.8 C 63 % 1020.1 hPa 0.0 l/m 11.4 km/h (2 Bft) NW -5.5 C -2.5 C
19.01.2004 16:00 0.6 C 65 % 1019.2 hPa 0.0 l/m 4.7 km/h (1 Bft) NW -5.3 C -0.7 C
19.01.2004 17:00 0.6 C 65 % 1018.3 hPa 0.0 l/m 6.7 km/h (2 Bft) NW -5.2 C -1.3 C
19.01.2004 18:00 0.3 C 69 % 1018.1 hPa 0.0 l/m 5.6 km/h (1 Bft) NW -4.7 C -1.1 C
19.01.2004 19:00 0.0 C 79 % 1017.3 hPa 0.0 l/m 0.4 km/h (0 Bft) N-NW -3.2 C -0.1 C
19.01.2004 20:00 -0.0 C 88 % 1017.0 hPa 0.0 l/m 0.0 km/h (0 Bft) N -1.7 C -0.0 C
19.01.2004 21:00 0.3 C 89 % 1016.4 hPa 0.3 l/m 4.0 km/h (1 Bft) W-NW -1.2 C -0.7 C
19.01.2004 22:00 0.5 C 89 % 1015.3 hPa 0.0 l/m 8.8 km/h (2 Bft) SW -1.1 C -2.2 C
19.01.2004 23:00 0.6 C 88 % 1014.6 hPa 0.3 l/m 9.4 km/h (2 Bft) SO -1.2 C -2.1 C
20.01.2004 00:00 0.7 C 87 % 1013.4 hPa 0.0 l/m 12.4 km/h (3 Bft) NO -1.1 C -2.8 C
20.01.2004 01:00 0.9 C 88 % 1012.0 hPa 0.3 l/m 11.3 km/h (2 Bft) W-NW -0.9 C -2.3 C
20.01.2004 02:00 0.6 C 90 % 1011.2 hPa 2.4 l/m 5.5 km/h (1 Bft) NW -0.8 C -0.8 C
20.01.2004 03:00 0.3 C 90 % 1010.2 hPa 2.4 l/m 0.2 km/h (0 Bft) N -1.2 C 0.3 C
20.01.2004 04:00 0.2 C 91 % 1009.7 hPa 2.1 l/m 0.0 km/h (0 Bft) N -1.0 C 0.2 C
20.01.2004 05:00 0.0 C 97 % 1009.4 hPa 2.1 l/m 0.3 km/h (0 Bft) W-NW -0.4 C 0.0 C
20.01.2004 06:00 0.2 C 93 % 1008.7 hPa 1.4 l/m 0.6 km/h (0 Bft) S-SO -0.9 C 0.1 C
20.01.2004 07:00 0.4 C 94 % 1008.8 hPa 0.7 l/m 0.0 km/h (0 Bft) N -0.5 C 0.4 C
20.01.2004 08:00 0.6 C 93 % 1009.7 hPa 0.3 l/m 0.2 km/h (0 Bft) N -0.4 C 0.6 C
20.01.2004 09:00 1.0 C 99 % 1009.7 hPa 0.3 l/m 0.4 km/h (0 Bft) N-NW 0.9 C 0.9 C
20.01.2004 10:00 1.9 C 99 % 1009.7 hPa 0.0 l/m 1.6 km/h (1 Bft) S-SO 1.8 C 1.7 C
20.01.2004 11:00 2.4 C 100 % 1009.7 hPa 0.0 l/m 1.1 km/h (0 Bft) SO 2.4 C 2.2 C
20.01.2004 12:00 2.4 C 98 % 1009.7 hPa 0.0 l/m 10.0 km/h (2 Bft) SO 2.1 C -0.3 C
20.01.2004 13:00 2.7 C 97 % 1009.7 hPa 0.0 l/m 7.1 km/h (2 Bft) SO 2.3 C 0.9 C
20.01.2004 14:00 2.8 C 96 % 1009.7 hPa 0.0 l/m 5.8 km/h (2 Bft) SO 2.3 C 1.4 C
20.01.2004 15:00 3.1 C 96 % 1010.6 hPa 0.0 l/m 1.6 km/h (1 Bft) O-SO 2.5 C 2.8 C
20.01.2004 16:00 3.0 C 96 % 1011.5 hPa 0.0 l/m 1.1 km/h (0 Bft) O-SO 2.5 C 2.9 C
20.01.2004 17:00 2.7 C 97 % 1012.4 hPa 0.0 l/m 0.0 km/h (0 Bft) N 2.2 C 2.7 C
20.01.2004 18:00 2.2 C 99 % 1012.9 hPa 0.0 l/m 0.6 km/h (0 Bft) NO 2.1 C 2.2 C
20.01.2004 19:00 2.1 C 99 % 1013.9 hPa 0.0 l/m 2.0 km/h (1 Bft) O-SO 2.0 C 1.5 C
20.01.2004 20:00 1.9 C 99 % 1014.6 hPa 0.0 l/m 1.3 km/h (1 Bft) O-SO 1.7 C 1.6 C
20.01.2004 21:00 1.8 C 100 % 1014.9 hPa 0.3 l/m 0.6 km/h (0 Bft) S-SO 1.8 C 1.7 C
20.01.2004 22:00 1.6 C 98 % 1015.1 hPa 0.3 l/m 2.2 km/h (1 Bft) S-SO 1.3 C 1.2 C
20.01.2004 23:00 1.6 C 100 % 1016.0 hPa 0.0 l/m 0.8 km/h (0 Bft) S-SO 1.6 C 1.4 C
21.01.2004 00:00 1.5 C 100 % 1016.0 hPa 0.0 l/m 0.8 km/h (0 Bft) S-SO 1.4 C 1.3 C
21.01.2004 01:00 1.1 C 100 % 1016.0 hPa 0.0 l/m 0.0 km/h (0 Bft) N 1.1 C 1.1 C
21.01.2004 02:00 1.1 C 100 % 1016.0 hPa 0.0 l/m 0.3 km/h (0 Bft) S-SO 1.1 C 1.1 C
21.01.2004 03:00 1.3 C 100 % 1016.0 hPa 0.0 l/m 0.2 km/h (0 Bft) S-SO 1.3 C 1.3 C
21.01.2004 04:00 1.2 C 100 % 1016.0 hPa 0.0 l/m 0.0 km/h (0 Bft) N 1.2 C 1.2 C
21.01.2004 05:00 1.1 C 100 % 1016.0 hPa 0.0 l/m 0.1 km/h (0 Bft) N 1.1 C 1.1 C
21.01.2004 06:00 1.0 C 100 % 1016.0 hPa 0.0 l/m 0.3 km/h (0 Bft) N-NW 1.0 C 1.0 C
21.01.2004 07:00 1.0 C 100 % 1016.2 hPa 0.0 l/m 0.3 km/h (0 Bft) NW 1.0 C 1.0 C
21.01.2004 08:00 1.0 C 100 % 1016.9 hPa 0.0 l/m 0.1 km/h (0 Bft) N 1.0 C 1.0 C
21.01.2004 09:00 1.1 C 99 % 1017.0 hPa 0.0 l/m 1.9 km/h (1 Bft) NW 1.0 C 0.6 C
21.01.2004 10:00 1.6 C 95 % 1017.7 hPa 0.0 l/m 1.5 km/h (1 Bft) NW 0.9 C 1.2 C
21.01.2004 11:00 1.9 C 90 % 1018.1 hPa 0.0 l/m 3.3 km/h (1 Bft) NW 0.5 C 1.1 C
21.01.2004 12:00 2.3 C 86 % 1018.1 hPa 0.0 l/m 0.2 km/h (0 Bft) NW 0.2 C 2.3 C
21.01.2004 13:00 2.2 C 84 % 1018.1 hPa 0.0 l/m 0.3 km/h (0 Bft) NW -0.3 C 2.2 C
21.01.2004 14:00 1.8 C 82 % 1018.1 hPa 0.0 l/m 3.3 km/h (1 Bft) NW -0.9 C 0.9 C
21.01.2004 15:00 1.7 C 79 % 1018.1 hPa 0.0 l/m 2.5 km/h (1 Bft) NW -1.5 C 1.1 C
21.01.2004 16:00 1.9 C 72 % 1018.2 hPa 0.0 l/m 0.7 km/h (0 Bft) NW -2.6 C 1.8 C
21.01.2004 17:00 0.3 C 75 % 1019.1 hPa 0.0 l/m 2.4 km/h (1 Bft) NW -3.6 C -0.3 C
21.01.2004 18:00 -0.3 C 74 % 1019.9 hPa 0.0 l/m 1.2 km/h (1 Bft) NW -4.3 C -0.6 C
21.01.2004 19:00 -0.6 C 75 % 1020.1 hPa 0.0 l/m 4.6 km/h (1 Bft) NW -4.4 C -1.8 C
21.01.2004 20:00 -0.7 C 77 % 1020.2 hPa 0.0 l/m 0.0 km/h (0 Bft) N -4.2 C -0.7 C
21.01.2004 21:00 -0.5 C 78 % 1021.2 hPa 0.0 l/m 0.1 km/h (0 Bft) N -4.0 C -0.5 C
21.01.2004 22:00 -0.5 C 78 % 1021.2 hPa 0.0 l/m 3.7 km/h (1 Bft) NO -3.8 C -1.5 C
21.01.2004 23:00 -0.8 C 75 % 1021.2 hPa 0.0 l/m 10.9 km/h (2 Bft) O-SO -4.8 C -4.4 C
22.01.2004 00:00 -1.1 C 71 % 1021.9 hPa 0.0 l/m 7.0 km/h (2 Bft) O-SO -5.7 C -3.3 C
22.01.2004 01:00 -1.2 C 71 % 1022.2 hPa 0.0 l/m 1.1 km/h (0 Bft) O-SO -5.8 C -1.6 C
22.01.2004 02:00 -1.4 C 70 % 1022.2 hPa 0.0 l/m 1.5 km/h (1 Bft) O-SO -6.1 C -1.8 C
22.01.2004 03:00 -1.5 C 68 % 1022.2 hPa 0.0 l/m 1.4 km/h (1 Bft) O-SO -6.6 C -2.0 C
22.01.2004 04:00 -1.6 C 66 % 1022.2 hPa 0.0 l/m 0.1 km/h (0 Bft) N -7.0 C -1.6 C
22.01.2004 05:00 -1.7 C 67 % 1022.2 hPa 0.0 l/m 0.6 km/h (0 Bft) O -6.9 C -1.8 C
22.01.2004 06:00 -1.8 C 68 % 1022.2 hPa 0.0 l/m 0.0 km/h (0 Bft) N -6.9 C -1.8 C
22.01.2004 07:00 -1.8 C 68 % 1022.4 hPa 0.0 l/m 0.1 km/h (0 Bft) O-SO -7.0 C -1.8 C
22.01.2004 08:00 -2.0 C 67 % 1023.3 hPa 0.0 l/m 0.3 km/h (0 Bft) O -7.2 C -2.1 C
22.01.2004 09:00 -2.2 C 66 % 1023.3 hPa 0.0 l/m 0.8 km/h (0 Bft) O -7.6 C -2.5 C
22.01.2004 10:00 -1.7 C 66 % 1023.3 hPa 0.0 l/m 0.9 km/h (0 Bft) O-SO -7.3 C -1.8 C
22.01.2004 11:00 -0.7 C 60 % 1022.8 hPa 0.0 l/m 0.7 km/h (0 Bft) NO -7.6 C -0.8 C
22.01.2004 12:00 0.5 C 54 % 1022.2 hPa 0.0 l/m 1.8 km/h (1 Bft) NO -7.8 C 0.1 C
22.01.2004 13:00 1.8 C 47 % 1022.2 hPa 0.0 l/m 3.2 km/h (1 Bft) O-SO -8.2 C 0.9 C
22.01.2004 14:00 2.0 C 45 % 1021.8 hPa 0.0 l/m 0.8 km/h (0 Bft) NW -8.6 C 2.0 C
22.01.2004 15:00 2.1 C 46 % 1021.2 hPa 0.0 l/m 5.3 km/h (1 Bft) SO -8.2 C 0.8 C
22.01.2004 16:00 0.3 C 55 % 1021.2 hPa 0.0 l/m 2.9 km/h (1 Bft) SO -7.7 C -0.4 C
22.01.2004 17:00 -1.5 C 63 % 1020.9 hPa 0.0 l/m 4.7 km/h (1 Bft) SO -7.6 C -2.9 C
22.01.2004 18:00 -1.7 C 68 % 1020.5 hPa 0.0 l/m 3.5 km/h (1 Bft) SO -6.8 C -2.7 C
22.01.2004 19:00 -1.6 C 66 % 1020.1 hPa 0.0 l/m 0.0 km/h (0 Bft) N -7.0 C -1.6 C
22.01.2004 20:00 -1.9 C 69 % 1020.1 hPa 0.0 l/m 0.0 km/h (0 Bft) N -6.9 C -1.9 C
22.01.2004 21:00 -2.0 C 69 % 1020.1 hPa 0.0 l/m 0.0 km/h (0 Bft) N -6.8 C -2.0 C
22.01.2004 22:00 -2.2 C 70 % 1019.6 hPa 0.0 l/m 0.3 km/h (0 Bft) O -7.0 C -2.3 C
22.01.2004 23:00 -2.3 C 71 % 1019.1 hPa 0.0 l/m 0.0 km/h (0 Bft) N -6.9 C -2.3 C
23.01.2004 00:00 -2.4 C 71 % 1019.1 hPa 0.0 l/m 0.0 km/h (0 Bft) N -7.0 C -2.4 C
23.01.2004 01:00 -2.5 C 70 % 1019.1 hPa 0.0 l/m 0.0 km/h (0 Bft) N -7.1 C -2.5 C
23.01.2004 02:00 -2.5 C 72 % 1018.4 hPa 0.0 l/m 0.9 km/h (0 Bft) O-SO -6.9 C -2.8 C
23.01.2004 03:00 -2.5 C 71 % 1018.1 hPa 0.0 l/m 0.0 km/h (0 Bft) N -6.9 C -2.5 C
23.01.2004 04:00 -2.4 C 71 % 1018.1 hPa 0.0 l/m 0.2 km/h (0 Bft) NO -6.9 C -2.4 C
23.01.2004 05:00 -2.4 C 71 % 1018.1 hPa 0.0 l/m 0.3 km/h (0 Bft) O-SO -6.9 C -2.5 C
23.01.2004 06:00 -2.7 C 71 % 1018.1 hPa 0.0 l/m 0.3 km/h (0 Bft) O-SO -7.2 C -2.8 C
23.01.2004 07:00 -3.3 C 70 % 1018.3 hPa 0.0 l/m 0.0 km/h (0 Bft) N -8.0 C -3.3 C
23.01.2004 08:00 -3.9 C 70 % 1018.8 hPa 0.0 l/m 0.2 km/h (0 Bft) O -8.4 C -3.9 C
23.01.2004 09:00 -3.4 C 69 % 1019.1 hPa 0.0 l/m 1.7 km/h (1 Bft) O-SO -8.3 C -3.8 C
23.01.2004 10:00 -2.2 C 63 % 1019.2 hPa 0.0 l/m 6.0 km/h (2 Bft) O-SO -8.3 C -4.3 C
23.01.2004 11:00 -1.1 C 61 % 1019.6 hPa 0.0 l/m 8.3 km/h (2 Bft) O-SO -7.8 C -3.9 C
23.01.2004 12:00 0.2 C 58 % 1019.1 hPa 0.0 l/m 9.4 km/h (2 Bft) O-SO -7.1 C -2.6 C
23.01.2004 13:00 1.7 C 53 % 1019.1 hPa 0.0 l/m 6.2 km/h (2 Bft) O-SO -6.9 C -0.0 C
23.01.2004 14:00 1.0 C 54 % 1019.1 hPa 0.0 l/m 12.4 km/h (3 Bft) O-SO -7.3 C -2.6 C
23.01.2004 15:00 1.2 C 52 % 1018.5 hPa 0.0 l/m 7.7 km/h (2 Bft) O-SO -7.6 C -1.1 C
23.01.2004 16:00 0.8 C 52 % 1018.8 hPa 0.0 l/m 7.8 km/h (2 Bft) O-SO -7.8 C -1.6 C
23.01.2004 17:00 -0.8 C 55 % 1019.4 hPa 0.0 l/m 7.3 km/h (2 Bft) O-SO -8.6 C -3.3 C
23.01.2004 18:00 -2.4 C 61 % 1020.1 hPa 0.0 l/m 0.0 km/h (0 Bft) N -8.9 C -2.4 C
23.01.2004 19:00 -3.0 C 68 % 1020.1 hPa 0.0 l/m 4.3 km/h (1 Bft) O-SO -8.0 C -4.5 C
23.01.2004 20:00 -3.6 C 70 % 1020.1 hPa 0.0 l/m 1.8 km/h (1 Bft) O-SO -8.3 C -4.2 C
23.01.2004 21:00 -3.8 C 64 % 1020.1 hPa 0.0 l/m 0.1 km/h (0 Bft) NO -9.5 C -3.8 C
23.01.2004 22:00 -4.7 C 72 % 1020.1 hPa 0.0 l/m 0.0 km/h (0 Bft) N -9.0 C -4.7 C
23.01.2004 23:00 -4.8 C 73 % 1019.9 hPa 0.0 l/m 0.4 km/h (0 Bft) N-NO -8.9 C -4.8 C
24.01.2004 00:00 -5.1 C 72 % 1020.0 hPa 0.0 l/m 0.4 km/h (0 Bft) N-NO -9.4 C -5.1 C
24.01.2004 01:00 -5.8 C 75 % 1020.1 hPa 0.0 l/m 2.0 km/h (1 Bft) O-SO -9.5 C -6.7 C
24.01.2004 02:00 -6.1 C 76 % 1019.7 hPa 0.0 l/m 0.3 km/h (0 Bft) O-SO -9.8 C -6.3 C
24.01.2004 03:00 -6.6 C 76 % 1019.2 hPa 0.0 l/m 0.0 km/h (0 Bft) N -10.1 C -6.6 C
24.01.2004 04:00 -6.5 C 77 % 1019.1 hPa 0.0 l/m 0.0 km/h (0 Bft) N -9.9 C -6.5 C
24.01.2004 05:00 -6.9 C 77 % 1019.1 hPa 0.0 l/m 0.1 km/h (0 Bft) S-SO -10.2 C -6.9 C
24.01.2004 06:00 -6.9 C 77 % 1019.1 hPa 0.0 l/m 0.0 km/h (0 Bft) N -10.2 C -6.9 C
24.01.2004 07:00 -7.0 C 78 % 1019.1 hPa 0.0 l/m 0.0 km/h (0 Bft) N -10.2 C -7.0 C
24.01.2004 08:00 -6.0 C 78 % 1019.1 hPa 0.0 l/m 0.0 km/h (0 Bft) N -9.3 C -6.0 C
24.01.2004 09:00 -4.8 C 72 % 1018.8 hPa 0.0 l/m 0.5 km/h (0 Bft) NW -9.1 C -5.0 C
24.01.2004 10:00 -4.0 C 71 % 1018.3 hPa 0.0 l/m 1.4 km/h (1 Bft) NW -8.4 C -4.6 C
24.01.2004 11:00 -3.1 C 70 % 1018.1 hPa 0.0 l/m 1.3 km/h (1 Bft) N-NO -7.7 C -3.5 C
24.01.2004 12:00 -2.5 C 69 % 1017.3 hPa 0.0 l/m 0.5 km/h (0 Bft) NW -7.5 C -2.6 C
24.01.2004 13:00 -1.7 C 69 % 1016.3 hPa 0.0 l/m 1.2 km/h (1 Bft) NW -6.6 C -2.1 C
24.01.2004 14:00 -1.1 C 70 % 1016.0 hPa 0.0 l/m 2.4 km/h (1 Bft) W-NW -5.9 C -1.9 C
24.01.2004 15:00 -0.9 C 71 % 1015.0 hPa 0.0 l/m 0.9 km/h (0 Bft) W-NW -5.6 C -1.2 C
24.01.2004 16:00 -1.2 C 72 % 1014.9 hPa 0.0 l/m 0.0 km/h (0 Bft) N -5.5 C -1.2 C
24.01.2004 17:00 -1.2 C 75 % 1014.9 hPa 0.0 l/m 0.0 km/h (0 Bft) N -5.0 C -1.2 C
24.01.2004 18:00 -1.3 C 83 % 1014.9 hPa 0.0 l/m 0.0 km/h (0 Bft) N -3.8 C -1.3 C
24.01.2004 19:00 -1.5 C 91 % 1014.1 hPa 0.3 l/m 0.1 km/h (0 Bft) N -2.7 C -1.5 C
24.01.2004 20:00 -1.5 C 95 % 1013.9 hPa 0.7 l/m 0.5 km/h (0 Bft) NW -2.2 C -1.5 C
24.01.2004 21:00 -0.5 C 98 % 1014.5 hPa 0.7 l/m 0.1 km/h (0 Bft) N -0.8 C -0.5 C
24.01.2004 22:00 1.0 C 99 % 1014.9 hPa 1.4 l/m 14.4 km/h (3 Bft) NW 0.9 C -2.9 C
24.01.2004 23:00 1.7 C 98 % 1015.4 hPa 0.3 l/m 26.9 km/h (4 Bft) NW 1.5 C -3.8 C
25.01.2004 00:00 1.8 C 95 % 1016.0 hPa 0.0 l/m 34.4 km/h (5 Bft) NW 1.1 C -4.4 C
25.01.2004 01:00 1.7 C 91 % 1016.3 hPa 0.0 l/m 23.5 km/h (4 Bft) NW 0.4 C -2.5 C
25.01.2004 02:00 0.8 C 90 % 1017.0 hPa 0.0 l/m 3.6 km/h (1 Bft) O-SO -0.6 C -0.2 C
25.01.2004 03:00 0.9 C 93 % 1017.7 hPa 0.0 l/m 3.8 km/h (1 Bft) S-SW -0.1 C -0.0 C
25.01.2004 04:00 0.9 C 91 % 1018.1 hPa 0.0 l/m 2.9 km/h (1 Bft) S-SO -0.3 C 0.2 C
25.01.2004 05:00 1.0 C 90 % 1018.1 hPa 0.0 l/m 1.9 km/h (1 Bft) N -0.6 C 0.5 C
25.01.2004 06:00 0.5 C 89 % 1018.1 hPa 0.0 l/m 1.0 km/h (0 Bft) O-SO -1.0 C 0.3 C
25.01.2004 07:00 -0.9 C 90 % 1018.1 hPa 0.0 l/m 1.5 km/h (1 Bft) O-SO -2.3 C -1.2 C
25.01.2004 08:00 -0.4 C 91 % 1018.1 hPa 0.0 l/m 2.5 km/h (1 Bft) SO -1.6 C -1.1 C
25.01.2004 09:00 0.4 C 88 % 1018.1 hPa 0.0 l/m 2.2 km/h (1 Bft) SO -1.4 C -0.1 C
25.01.2004 10:00 1.5 C 82 % 1018.1 hPa 0.0 l/m 3.8 km/h (1 Bft) SO -1.3 C 0.5 C
25.01.2004 11:00 1.1 C 86 % 1018.0 hPa 0.7 l/m 3.4 km/h (1 Bft) SO -0.9 C 0.3 C
25.01.2004 12:00 1.5 C 90 % 1017.0 hPa 0.0 l/m 1.6 km/h (1 Bft) SO 0.0 C 1.1 C
25.01.2004 13:00 2.0 C 89 % 1016.5 hPa 0.0 l/m 0.6 km/h (0 Bft) O-SO 0.3 C 1.9 C
25.01.2004 14:00 2.8 C 83 % 1016.0 hPa 0.0 l/m 1.9 km/h (1 Bft) SO 0.3 C 2.5 C
25.01.2004 15:00 3.0 C 78 % 1016.0 hPa 0.0 l/m 0.6 km/h (0 Bft) W-NW -0.4 C 3.0 C
25.01.2004 16:00 2.3 C 80 % 1016.0 hPa 0.0 l/m 3.8 km/h (1 Bft) O-NO -0.9 C 1.3 C
25.01.2004 17:00 0.4 C 86 % 1016.0 hPa 0.0 l/m 3.7 km/h (1 Bft) O-SO -1.7 C -0.3 C
25.01.2004 18:00 0.6 C 90 % 1015.3 hPa 0.0 l/m 4.6 km/h (1 Bft) O-SO -0.8 C -0.7 C
25.01.2004 19:00 0.1 C 91 % 1014.9 hPa 0.0 l/m 3.6 km/h (1 Bft) SO -1.2 C -1.0 C
25.01.2004 20:00 -1.1 C 91 % 1014.5 hPa 0.0 l/m 2.6 km/h (1 Bft) SO -2.3 C -1.6 C
25.01.2004 21:00 -1.5 C 94 % 1013.8 hPa 0.0 l/m 2.7 km/h (1 Bft) SO -2.4 C -2.2 C
25.01.2004 22:00 -1.2 C 95 % 1013.0 hPa 0.0 l/m 4.0 km/h (1 Bft) SO -1.9 C -2.6 C
25.01.2004 23:00 -0.9 C 95 % 1012.8 hPa 0.0 l/m 5.3 km/h (1 Bft) O-SO -1.6 C -2.5 C
Min-Datum _ 24.01.04 22.01.04 20.01.04 - 19.01.04 - 24.01.04 24.01.04
_ Min-Zeit 06:09 14:19 05:40 - 00:01 - 06:09 01:30
Minimum _ -7.3 C 44 % 1008.7 hPa - 0.0 km/h (0 Bft) - -10.6 C -9.2 C
Max-Datum _ 25.01.04 20.01.04 19.01.04 20.01.04 25.01.04 - 20.01.04 25.01.04
_ Max-Zeit 14:49 07:16 02:16 01:00 01:07 - 16:40 14:49
Maximum _ 3.5 C 100 % 1024.3 hPa 2.4 l/m 52.6 km/h
NW (7 Bft)
- 2.7 C 3.5 C
Durchschnitt _ -0.6 C 79 % 1017.8 hPa #17.9 l/m 2.8 km/h (1 Bft) O-SO -3.8 C -1.3 C

Durchschnitt Minimum Temp.-1.0 C
Durchschnitt Maximum Temp.-0.2 C
© Kaiko 2004